createdAt,value
2018-08-24T00:00:25.357Z,22.94
2018-08-24T00:02:54.442Z,22.98
2018-08-24T00:05:23.801Z,23.05
2018-08-24T00:07:52.853Z,23.08
2018-08-24T00:10:21.809Z,22.94
2018-08-24T00:12:50.809Z,22.66
2018-08-24T00:15:19.707Z,22.69
2018-08-24T00:17:49.151Z,22.62
2018-08-24T00:20:18.417Z,22.41
2018-08-24T00:22:47.473Z,22.44
2018-08-24T00:25:16.390Z,22.33
2018-08-24T00:27:45.572Z,22.20
2018-08-24T00:30:14.523Z,22.31
2018-08-24T00:32:43.490Z,22.27
2018-08-24T00:35:12.677Z,22.17
2018-08-24T00:37:41.681Z,22.19
2018-08-24T00:40:10.645Z,22.21
2018-08-24T00:42:39.705Z,22.37
2018-08-24T00:45:08.615Z,22.37
2018-08-24T00:47:37.533Z,22.43
2018-08-24T00:50:06.617Z,22.47
2018-08-24T00:52:35.500Z,22.67
2018-08-24T00:55:04.510Z,22.58
2018-08-24T00:57:33.814Z,22.59
2018-08-24T01:00:02.861Z,22.67
2018-08-24T01:02:31.718Z,22.93
2018-08-24T01:05:00.733Z,22.89
2018-08-24T01:07:29.822Z,23.09
2018-08-24T01:10:03.291Z,23.26
2018-08-24T01:12:32.337Z,23.28
2018-08-24T01:15:05.421Z,23.27
2018-08-24T01:17:39.486Z,23.52
2018-08-24T01:20:08.836Z,23.30
2018-08-24T01:22:37.737Z,23.45
2018-08-24T01:25:07.264Z,23.15
2018-08-24T01:27:37.329Z,23.24
2018-08-24T01:30:06.415Z,23.44
2018-08-24T01:32:35.370Z,23.39
2018-08-24T01:35:04.325Z,23.20
2018-08-24T01:37:33.292Z,23.17
2018-08-24T01:40:02.208Z,23.17
2018-08-24T01:42:31.482Z,23.46
2018-08-24T01:45:00.374Z,23.47
2018-08-24T01:47:29.235Z,23.44
2018-08-24T01:49:58.204Z,23.28
2018-08-24T01:52:27.194Z,23.31
2018-08-24T01:54:56.149Z,23.32
2018-08-24T01:57:25.500Z,23.29
2018-08-24T01:59:54.367Z,23.16
2018-08-24T02:02:23.327Z,23.18
2018-08-24T02:04:53.614Z,23.26
2018-08-24T02:07:22.539Z,23.38
2018-08-24T02:09:51.462Z,23.05
2018-08-24T02:12:25.613Z,23.13
2018-08-24T02:14:54.632Z,23.05
2018-08-24T02:17:28.924Z,22.96
2018-08-24T02:20:02.929Z,22.75
2018-08-24T02:22:32.659Z,22.69
2018-08-24T02:25:01.611Z,22.56
2018-08-24T02:27:30.517Z,22.57
2018-08-24T02:29:59.730Z,22.64
2018-08-24T02:32:28.643Z,22.43
2018-08-24T02:35:00.716Z,22.41
2018-08-24T02:37:30.662Z,22.50
2018-08-24T02:39:59.570Z,22.39
2018-08-24T02:42:28.835Z,22.31
2018-08-24T02:44:57.812Z,22.20
2018-08-24T02:47:26.720Z,22.13
2018-08-24T02:49:55.871Z,22.21
2018-08-24T02:52:24.740Z,22.39
2018-08-24T02:54:53.693Z,22.23
2018-08-24T02:57:23.023Z,21.96
2018-08-24T02:59:51.940Z,22.06
2018-08-24T03:02:20.995Z,21.92
2018-08-24T03:04:50.325Z,22.20
2018-08-24T03:07:19.237Z,22.15
2018-08-24T03:09:48.141Z,22.20
2018-08-24T03:12:17.681Z,22.34
2018-08-24T03:14:46.677Z,22.17
2018-08-24T03:17:20.878Z,22.05
2018-08-24T03:19:49.836Z,22.22
2018-08-24T03:22:18.738Z,22.09
2018-08-24T03:24:48.233Z,22.04
2018-08-24T03:27:17.167Z,21.95
2018-08-24T03:29:46.053Z,21.95
2018-08-24T03:32:15.298Z,21.79
2018-08-24T03:34:44.184Z,21.81
2018-08-24T03:37:13.112Z,21.66
2018-08-24T03:39:42.059Z,21.63
2018-08-24T03:42:11.715Z,21.54
2018-08-24T03:44:40.672Z,21.66
2018-08-24T03:47:09.621Z,21.36
2018-08-24T03:49:38.546Z,21.33
2018-08-24T03:52:07.466Z,21.31
2018-08-24T03:54:36.702Z,21.36
2018-08-24T03:57:05.676Z,21.29
2018-08-24T03:59:34.590Z,21.37
2018-08-24T04:02:03.942Z,21.42
2018-08-24T04:04:32.901Z,21.51
2018-08-24T04:07:01.843Z,21.53
2018-08-24T04:09:30.792Z,21.68
2018-08-24T04:11:59.647Z,21.55
2018-08-24T04:14:28.640Z,21.46
2018-08-24T04:17:02.664Z,21.43
2018-08-24T04:19:31.653Z,21.19
2018-08-24T04:22:00.927Z,21.28
2018-08-24T04:24:29.794Z,21.50
2018-08-24T04:26:58.737Z,21.40
2018-08-24T04:29:27.660Z,21.45
2018-08-24T04:31:56.638Z,21.35
2018-08-24T04:34:25.625Z,21.36
2018-08-24T04:36:54.547Z,21.23
2018-08-24T04:39:23.494Z,21.38
2018-08-24T04:41:52.394Z,21.28
2018-08-24T04:44:21.306Z,21.33
2018-08-24T04:46:50.569Z,21.39
2018-08-24T04:49:19.409Z,21.36
2018-08-24T04:51:48.271Z,21.43
2018-08-24T04:54:17.242Z,21.41
2018-08-24T04:56:46.218Z,21.38
2018-08-24T04:59:15.122Z,21.40
2018-08-24T05:01:44.448Z,21.36
2018-08-24T05:04:13.377Z,21.29
2018-08-24T05:06:42.212Z,21.40
2018-08-24T05:09:11.592Z,21.47
2018-08-24T05:11:41.060Z,21.60
2018-08-24T05:14:10.702Z,21.86
2018-08-24T05:16:39.962Z,21.99
2018-08-24T05:19:08.817Z,22.64
2018-08-24T05:21:37.697Z,22.26
2018-08-24T05:24:06.671Z,22.45
2018-08-24T05:26:35.652Z,22.56
2018-08-24T05:29:04.626Z,22.58
2018-08-24T05:31:33.973Z,22.42
2018-08-24T05:34:02.937Z,22.55
2018-08-24T05:36:31.811Z,22.60
2018-08-24T05:39:00.848Z,22.68
2018-08-24T05:41:30.045Z,22.58
2018-08-24T05:43:59.305Z,22.80
2018-08-24T05:46:28.531Z,23.21
2018-08-24T05:48:57.514Z,22.94
2018-08-24T05:51:26.263Z,23.00
2018-08-24T05:53:55.416Z,22.90
2018-08-24T05:56:24.178Z,22.87
2018-08-24T05:58:52.927Z,22.92
2018-08-24T06:01:21.777Z,22.97
2018-08-24T06:03:50.545Z,23.21
2018-08-24T06:06:19.302Z,22.83
2018-08-24T06:08:52.448Z,23.16
2018-08-24T06:11:21.223Z,23.06
2018-08-24T06:13:49.983Z,23.23
2018-08-24T06:16:18.764Z,23.54
2018-08-24T06:18:47.584Z,23.90
2018-08-24T06:21:16.364Z,23.98
2018-08-24T06:23:45.465Z,24.11
2018-08-24T06:26:14.884Z,24.39
2018-08-24T06:28:43.649Z,24.32
2018-08-24T06:31:12.457Z,24.21
2018-08-24T06:33:41.235Z,23.99
2018-08-24T06:36:10.031Z,24.23
2018-08-24T06:38:39.133Z,24.39
2018-08-24T06:41:07.936Z,24.40
2018-08-24T06:43:36.716Z,24.80
2018-08-24T06:46:05.566Z,24.65
2018-08-24T06:48:34.386Z,24.77
2018-08-24T06:51:03.155Z,25.06
2018-08-24T06:53:32.321Z,25.07
2018-08-24T06:56:01.076Z,25.37
2018-08-24T06:58:29.831Z,25.18
2018-08-24T07:00:58.607Z,25.46
2018-08-24T07:03:27.387Z,24.86
2018-08-24T07:05:56.301Z,25.19
2018-08-24T07:08:25.383Z,25.11
2018-08-24T07:10:54.121Z,25.24
2018-08-24T07:13:22.968Z,25.33
2018-08-24T07:15:51.734Z,25.58
2018-08-24T07:18:20.511Z,25.64
2018-08-24T07:20:49.273Z,25.78
2018-08-24T07:23:18.106Z,25.88
2018-08-24T07:25:46.886Z,25.98
2018-08-24T07:28:15.674Z,26.00
2018-08-24T07:30:44.408Z,25.95
2018-08-24T07:33:13.172Z,25.96
2018-08-24T07:35:41.906Z,25.82
2018-08-24T07:38:10.689Z,26.15
2018-08-24T07:40:39.466Z,26.08
2018-08-24T07:43:08.262Z,26.13
2018-08-24T07:45:37.521Z,26.47
2018-08-24T07:48:06.295Z,26.88
2018-08-24T07:50:35.090Z,26.90
2018-08-24T07:53:03.944Z,26.82
2018-08-24T07:55:32.699Z,26.97
2018-08-24T07:58:01.485Z,27.22
2018-08-24T08:00:30.602Z,27.15
2018-08-24T08:02:59.441Z,27.14
2018-08-24T08:05:28.254Z,27.36
2018-08-24T08:07:57.361Z,26.61
2018-08-24T08:10:30.184Z,26.88
2018-08-24T08:12:59.146Z,27.39
2018-08-24T08:15:27.924Z,27.28
2018-08-24T08:17:56.737Z,27.52
2018-08-24T08:20:25.602Z,27.47
2018-08-24T08:22:54.399Z,27.36
2018-08-24T08:25:23.268Z,27.67
2018-08-24T08:27:52.435Z,28.64
2018-08-24T08:30:21.294Z,28.67
2018-08-24T08:32:50.097Z,29.26
2018-08-24T08:35:19.272Z,29.79
2018-08-24T08:37:48.040Z,29.30
2018-08-24T08:40:16.780Z,29.93
2018-08-24T08:42:45.584Z,28.78
2018-08-24T08:45:14.433Z,28.41
2018-08-24T08:47:43.198Z,28.81
2018-08-24T08:50:12.355Z,28.79
2018-08-24T08:52:41.122Z,29.30
2018-08-24T08:55:10.190Z,29.25
2018-08-24T08:57:39.349Z,29.32
2018-08-24T09:00:08.253Z,29.73
2018-08-24T09:02:37.113Z,29.92
2018-08-24T09:05:06.479Z,29.61
2018-08-24T09:07:35.284Z,30.24
2018-08-24T09:10:04.430Z,29.95
2018-08-24T09:12:33.545Z,29.83
2018-08-24T09:15:02.359Z,29.82
2018-08-24T09:17:36.672Z,29.88
2018-08-24T09:20:10.707Z,30.47
2018-08-24T09:22:45.302Z,30.81
2018-08-24T09:25:19.372Z,30.82
2018-08-24T09:27:52.651Z,30.37
2018-08-24T09:30:22.716Z,30.77
2018-08-24T09:32:51.547Z,30.89
2018-08-24T09:35:21.042Z,30.64
2018-08-24T09:37:49.948Z,31.22
2018-08-24T09:40:19.137Z,30.94
2018-08-24T09:42:48.000Z,31.29
2018-08-24T09:45:16.810Z,31.84
2018-08-24T09:48:48.575Z,31.65
2018-08-24T09:51:22.481Z,32.00
2018-08-24T09:53:57.289Z,31.72
2018-08-24T09:56:27.329Z,31.58
2018-08-24T09:58:56.261Z,31.74
2018-08-24T10:01:30.419Z,32.06
2018-08-24T10:04:04.404Z,31.80
2018-08-24T10:06:38.424Z,32.25
2018-08-24T10:09:10.925Z,32.32
2018-08-24T10:11:40.096Z,32.63
2018-08-24T10:14:09.307Z,32.83
2018-08-24T10:16:38.498Z,31.99
2018-08-24T10:19:10.623Z,32.24
2018-08-24T10:21:39.571Z,32.41
2018-08-24T10:24:13.624Z,32.89
2018-08-24T10:26:42.457Z,33.47
2018-08-24T10:29:11.310Z,33.42
2018-08-24T10:31:40.489Z,33.69
2018-08-24T10:34:09.309Z,34.05
2018-08-24T10:36:38.891Z,33.25
2018-08-24T10:39:09.821Z,32.71
2018-08-24T10:41:38.578Z,32.80
2018-08-24T10:44:07.568Z,33.61
2018-08-24T10:46:36.712Z,33.23
2018-08-24T10:49:05.631Z,32.71
2018-08-24T10:51:34.435Z,33.01
2018-08-24T10:54:03.353Z,32.62
2018-08-24T10:56:32.170Z,33.32
2018-08-24T10:59:00.961Z,33.26
2018-08-24T11:01:30.082Z,33.31
2018-08-24T11:03:58.895Z,33.57
2018-08-24T11:06:27.781Z,33.14
2018-08-24T11:08:56.971Z,32.86
2018-08-24T11:11:26.089Z,33.52
2018-08-24T11:13:54.861Z,33.70
2018-08-24T11:16:23.666Z,33.83
2018-08-24T11:18:52.489Z,34.31
2018-08-24T11:21:21.303Z,34.06
2018-08-24T11:23:50.470Z,33.94
2018-08-24T11:26:19.280Z,33.75
2018-08-24T11:28:48.174Z,33.35
2018-08-24T11:31:17.015Z,33.08
2018-08-24T11:33:45.793Z,33.53
2018-08-24T11:36:15.441Z,33.71
2018-08-24T11:38:44.312Z,33.33
2018-08-24T11:41:13.150Z,33.58
2018-08-24T11:43:42.055Z,33.46
2018-08-24T11:46:10.928Z,33.58
2018-08-24T11:48:39.774Z,34.42
2018-08-24T11:51:08.610Z,33.27
2018-08-24T11:53:37.480Z,33.74
2018-08-24T11:56:06.918Z,34.39
2018-08-24T11:58:35.752Z,34.09
2018-08-24T12:01:04.662Z,34.72
2018-08-24T12:03:33.505Z,34.75
2018-08-24T12:06:02.326Z,34.85
2018-08-24T12:08:31.411Z,35.01
2018-08-24T12:11:00.250Z,35.07
2018-08-24T12:13:29.169Z,34.83
2018-08-24T12:15:57.994Z,34.34
2018-08-24T12:18:26.944Z,34.52
2018-08-24T12:20:55.695Z,34.23
2018-08-24T12:23:24.834Z,34.44
2018-08-24T12:25:53.721Z,34.56
2018-08-24T12:28:22.553Z,34.42
2018-08-24T12:30:51.484Z,34.83
2018-08-24T12:33:20.270Z,34.67
2018-08-24T12:35:49.138Z,34.46
2018-08-24T12:38:18.324Z,34.71
2018-08-24T12:40:47.187Z,34.54
2018-08-24T12:43:17.065Z,34.87
2018-08-24T12:45:45.958Z,34.37
2018-08-24T12:48:14.802Z,34.34
2018-08-24T12:50:43.686Z,34.01
2018-08-24T12:53:12.557Z,34.15
2018-08-24T12:55:41.416Z,34.78
2018-08-24T12:58:10.278Z,35.34
2018-08-24T13:00:39.223Z,35.31
2018-08-24T13:03:08.036Z,34.32
2018-08-24T13:05:36.873Z,33.48
2018-08-24T13:08:05.849Z,33.44
2018-08-24T13:10:34.668Z,33.63
2018-08-24T13:13:03.445Z,33.78
2018-08-24T13:15:32.319Z,34.09
2018-08-24T13:18:01.135Z,33.42
2018-08-24T13:20:30.076Z,33.52
2018-08-24T13:22:59.003Z,33.97
2018-08-24T13:25:27.805Z,33.55
2018-08-24T13:27:56.593Z,34.65
2018-08-24T13:30:25.565Z,33.90
2018-08-24T13:32:54.568Z,33.42
2018-08-24T13:35:23.447Z,33.32
2018-08-24T13:37:52.464Z,33.90
2018-08-24T13:40:21.370Z,33.77
2018-08-24T13:42:50.325Z,34.31
2018-08-24T13:45:19.492Z,34.35
2018-08-24T13:47:48.527Z,34.48
2018-08-24T13:50:17.566Z,33.54
2018-08-24T13:52:46.619Z,33.22
2018-08-24T13:55:15.764Z,33.32
2018-08-24T13:57:44.915Z,33.96
2018-08-24T14:00:14.202Z,33.39
2018-08-24T14:02:43.266Z,33.54
2018-08-24T14:05:12.371Z,33.58
2018-08-24T14:07:41.562Z,33.46
2018-08-24T14:10:10.561Z,32.93
2018-08-24T14:12:39.607Z,32.83
2018-08-24T14:15:08.629Z,32.81
2018-08-24T14:17:37.682Z,32.88
2018-08-24T14:20:07.028Z,33.25
2018-08-24T14:22:36.317Z,33.04
2018-08-24T14:25:05.600Z,32.81
2018-08-24T14:27:34.597Z,33.51
2018-08-24T14:30:03.901Z,32.86
2018-08-24T14:32:32.819Z,32.62
2018-08-24T14:35:01.742Z,32.75
2018-08-24T14:37:31.118Z,32.74
2018-08-24T14:40:00.042Z,32.59
2018-08-24T14:42:29.173Z,33.27
2018-08-24T14:44:58.567Z,32.56
2018-08-24T14:47:27.572Z,32.00
2018-08-24T14:49:56.581Z,33.08
2018-08-24T14:52:26.133Z,33.84
2018-08-24T14:54:55.145Z,32.59
2018-08-24T14:57:24.280Z,33.41
2018-08-24T14:59:53.770Z,32.70
2018-08-24T15:02:22.941Z,32.63
2018-08-24T15:04:52.100Z,32.56
2018-08-24T15:07:21.476Z,33.03
2018-08-24T15:09:50.655Z,32.02
2018-08-24T15:12:19.722Z,32.25
2018-08-24T15:14:48.755Z,32.97
2018-08-24T15:17:17.741Z,32.07
2018-08-24T15:19:46.963Z,31.66
2018-08-24T15:22:15.988Z,31.64
2018-08-24T15:24:45.121Z,31.60
2018-08-24T15:27:14.343Z,31.70
2018-08-24T15:29:43.852Z,31.56
2018-08-24T15:32:12.858Z,31.50
2018-08-24T15:34:42.141Z,31.36
2018-08-24T15:37:11.284Z,31.27
2018-08-24T15:39:40.379Z,31.29
2018-08-24T15:42:09.598Z,31.27
2018-08-24T15:44:38.721Z,31.25
2018-08-24T15:47:07.757Z,31.18
2018-08-24T15:49:36.900Z,31.12
2018-08-24T15:52:06.520Z,31.02
2018-08-24T15:54:35.772Z,30.97
2018-08-24T15:57:05.200Z,30.95
2018-08-24T15:59:34.895Z,30.92
2018-08-24T16:02:04.610Z,30.91
2018-08-24T16:04:34.176Z,31.08
2018-08-24T16:07:04.774Z,31.19
2018-08-24T16:09:33.768Z,31.38
2018-08-24T16:12:03.906Z,31.53
2018-08-24T16:14:34.274Z,31.64
2018-08-24T16:17:03.618Z,31.71
2018-08-24T16:19:33.030Z,31.71
2018-08-24T16:22:02.647Z,31.68
2018-08-24T16:24:32.056Z,31.66
2018-08-24T16:27:01.702Z,31.59
2018-08-24T16:29:31.633Z,31.39
2018-08-24T16:32:01.022Z,31.38
2018-08-24T16:34:30.750Z,31.31
2018-08-24T16:37:00.296Z,31.29
2018-08-24T16:39:29.992Z,31.20
2018-08-24T16:41:59.026Z,31.09
2018-08-24T16:44:28.127Z,31.03
2018-08-24T16:46:57.168Z,31.05
2018-08-24T16:49:26.202Z,30.97
2018-08-24T16:51:55.272Z,30.85
2018-08-24T16:54:24.443Z,30.90
2018-08-24T16:56:53.318Z,30.90
2018-08-24T16:59:22.573Z,30.72
2018-08-24T17:01:51.512Z,30.75
2018-08-24T17:04:20.449Z,30.58
2018-08-24T17:06:49.771Z,30.78
2018-08-24T17:09:18.720Z,30.74
2018-08-24T17:11:47.725Z,30.59
2018-08-24T17:14:17.060Z,30.59
2018-08-24T17:16:45.997Z,30.58
2018-08-24T17:19:14.950Z,30.58
2018-08-24T17:21:43.961Z,30.65
2018-08-24T17:24:12.933Z,30.46
2018-08-24T17:26:42.024Z,30.41
2018-08-24T17:29:11.129Z,30.47
2018-08-24T17:31:40.400Z,30.59
2018-08-24T17:34:09.385Z,30.47
2018-08-24T17:36:38.962Z,30.31
2018-08-24T17:39:10.568Z,30.38
2018-08-24T17:41:39.549Z,30.49
2018-08-24T17:44:08.921Z,30.36
2018-08-24T17:46:38.306Z,30.35
2018-08-24T17:49:07.973Z,30.38
2018-08-24T17:51:36.900Z,30.35
2018-08-24T17:54:07.084Z,30.42
2018-08-24T17:56:36.337Z,30.39
2018-08-24T17:59:05.579Z,30.29
2018-08-24T18:01:34.678Z,30.33
2018-08-24T18:04:04.140Z,30.32
2018-08-24T18:06:33.224Z,30.39
2018-08-24T18:09:02.443Z,30.35
2018-08-24T18:11:31.677Z,30.26
2018-08-24T18:14:00.671Z,30.25
2018-08-24T18:16:29.735Z,30.28
2018-08-24T18:18:58.947Z,30.25
2018-08-24T18:21:27.962Z,30.24
2018-08-24T18:23:56.906Z,30.30
2018-08-24T18:26:25.883Z,30.39
2018-08-24T18:28:54.878Z,30.34
2018-08-24T18:31:23.885Z,30.28
2018-08-24T18:33:53.379Z,30.32
2018-08-24T18:36:22.287Z,30.34
2018-08-24T18:38:51.257Z,30.34
2018-08-24T18:41:20.741Z,30.15
2018-08-24T18:43:49.763Z,30.24
2018-08-24T18:46:18.724Z,30.26
2018-08-24T18:48:47.915Z,30.19
2018-08-24T18:51:17.010Z,30.20
2018-08-24T18:53:46.054Z,30.10
2018-08-24T18:56:15.361Z,30.01
2018-08-24T18:58:44.361Z,30.10
2018-08-24T19:01:13.396Z,30.03
2018-08-24T19:03:42.402Z,30.88
2018-08-24T19:06:11.286Z,29.72
2018-08-24T19:08:40.229Z,28.79
2018-08-24T19:11:14.347Z,28.12
2018-08-24T19:13:43.276Z,27.57
2018-08-24T19:16:12.190Z,27.56
2018-08-24T19:19:49.012Z,27.28
2018-08-24T19:22:18.036Z,27.08
2018-08-24T19:24:46.984Z,26.86
2018-08-24T19:27:16.302Z,26.78
2018-08-24T19:30:53.107Z,26.91
2018-08-24T19:33:22.057Z,26.51
2018-08-24T19:35:50.948Z,26.54
2018-08-24T19:38:19.907Z,26.60
2018-08-24T19:40:54.471Z,26.68
2018-08-24T19:43:23.358Z,26.48
2018-08-24T19:45:52.293Z,26.53
2018-08-24T19:48:26.598Z,26.71
2018-08-24T19:50:55.571Z,26.54
2018-08-24T19:53:25.373Z,26.43
2018-08-24T19:55:54.340Z,26.57
2018-08-24T19:58:28.440Z,26.73
2018-08-24T20:00:57.791Z,26.54
2018-08-24T20:03:26.671Z,26.70
2018-08-24T20:06:00.838Z,26.41
2018-08-24T20:08:34.888Z,26.33
2018-08-24T20:11:04.093Z,26.29
2018-08-24T20:13:33.038Z,26.32
2018-08-24T20:16:07.100Z,26.24
2018-08-24T20:18:36.816Z,26.20
2018-08-24T20:21:05.968Z,26.18
2018-08-24T20:23:34.971Z,26.41
2018-08-24T20:26:04.009Z,26.41
2018-08-24T20:28:32.991Z,26.05
2018-08-24T20:31:02.228Z,26.18
2018-08-24T20:33:31.187Z,26.20
2018-08-24T20:36:00.207Z,26.30
2018-08-24T20:38:29.394Z,26.31
2018-08-24T20:40:58.357Z,26.19
2018-08-24T20:43:27.319Z,25.92
2018-08-24T20:45:56.255Z,26.00
2018-08-24T20:48:25.214Z,25.93
2018-08-24T20:50:54.189Z,26.04
2018-08-24T20:53:23.161Z,25.57
2018-08-24T20:55:52.168Z,25.93
2018-08-24T20:58:21.161Z,25.76
2018-08-24T21:00:50.599Z,25.62
2018-08-24T21:03:19.542Z,25.29
2018-08-24T21:05:48.624Z,25.39
2018-08-24T21:08:17.720Z,25.51
2018-08-24T21:10:46.935Z,25.48
2018-08-24T21:13:15.870Z,25.49
2018-08-24T21:15:45.314Z,25.62
2018-08-24T21:18:14.295Z,25.67
2018-08-24T21:20:43.263Z,25.59
2018-08-24T21:23:12.209Z,25.65
2018-08-24T21:25:41.162Z,25.72
2018-08-24T21:28:10.081Z,25.65
2018-08-24T21:30:39.034Z,25.52
2018-08-24T21:33:07.925Z,25.43
2018-08-24T21:35:36.948Z,25.18
2018-08-24T21:38:06.526Z,25.25
2018-08-24T21:40:35.536Z,25.01
2018-08-24T21:43:04.486Z,24.93
2018-08-24T21:45:33.437Z,24.90
2018-08-24T21:48:02.373Z,24.93
2018-08-24T21:50:31.290Z,24.89
2018-08-24T21:53:00.652Z,24.98
2018-08-24T21:55:29.551Z,24.83
2018-08-24T21:57:58.494Z,24.69
2018-08-24T22:00:27.553Z,24.62
2018-08-24T22:02:56.585Z,24.62
2018-08-24T22:05:25.581Z,24.63
2018-08-24T22:07:54.944Z,24.64
2018-08-24T22:10:23.804Z,24.64
2018-08-24T22:12:52.731Z,24.82
2018-08-24T22:15:22.031Z,24.85
2018-08-24T22:17:51.002Z,24.76
2018-08-24T22:20:20.057Z,24.59
2018-08-24T22:22:49.045Z,24.59
2018-08-24T22:27:45.261Z,24.61
2018-08-24T22:30:14.488Z,24.66
2018-08-24T22:32:43.305Z,24.87
2018-08-24T22:35:12.143Z,25.01
2018-08-24T22:37:41.323Z,25.08
2018-08-24T22:40:10.251Z,25.16
2018-08-24T22:42:42.267Z,25.22
2018-08-24T22:45:12.068Z,25.34
2018-08-24T22:47:40.925Z,25.27
2018-08-24T22:50:10.252Z,25.17
2018-08-24T22:52:39.669Z,25.02
2018-08-24T22:55:09.093Z,24.78
2018-08-24T22:57:37.942Z,24.36
2018-08-24T23:00:06.879Z,24.25
2018-08-24T23:02:35.741Z,24.20
2018-08-24T23:05:04.650Z,24.23
2018-08-24T23:07:33.468Z,24.28
2018-08-24T23:10:02.351Z,24.23
2018-08-24T23:12:31.174Z,24.24
2018-08-24T23:14:59.990Z,24.23
2018-08-24T23:17:29.166Z,24.46
2018-08-24T23:19:58.054Z,24.20
2018-08-24T23:22:26.875Z,24.23
2018-08-24T23:24:55.644Z,24.31
2018-08-24T23:27:24.720Z,24.18
2018-08-24T23:29:53.557Z,23.92
2018-08-24T23:32:22.400Z,23.89
2018-08-24T23:34:51.223Z,23.97
2018-08-24T23:37:20.040Z,24.08
2018-08-24T23:39:48.856Z,23.90
2018-08-24T23:42:17.659Z,23.98
2018-08-24T23:44:46.442Z,24.00
